createdAt,value
2018-11-02T00:01:41.639Z,22.40
2018-11-02T00:06:48.510Z,22.40
2018-11-02T00:09:16.785Z,22.40
2018-11-02T00:11:44.881Z,22.40
2018-11-02T00:14:13.030Z,22.40
2018-11-02T00:16:41.121Z,22.40
2018-11-02T00:19:09.481Z,22.40
2018-11-02T00:21:37.730Z,22.40
2018-11-02T00:24:05.941Z,22.40
2018-11-02T00:26:34.110Z,22.30
2018-11-02T00:29:02.375Z,22.30
2018-11-02T00:31:30.476Z,22.30
2018-11-02T00:33:58.621Z,22.30
2018-11-02T00:36:26.776Z,22.30
2018-11-02T00:38:54.925Z,22.30
2018-11-02T00:41:23.059Z,22.30
2018-11-02T00:43:51.261Z,22.30
2018-11-02T00:46:19.372Z,22.30
2018-11-02T00:48:47.583Z,22.30
2018-11-02T00:51:15.708Z,22.30
2018-11-02T00:53:43.884Z,22.30
2018-11-02T00:56:11.963Z,22.30
2018-11-02T00:58:40.154Z,22.30
2018-11-02T01:01:08.245Z,22.30
2018-11-02T01:03:36.456Z,22.30
2018-11-02T01:06:04.810Z,22.30
2018-11-02T01:08:32.908Z,22.20
2018-11-02T01:11:01.001Z,22.20
2018-11-02T01:13:29.231Z,22.20
2018-11-02T01:15:57.295Z,22.20
2018-11-02T01:21:00.077Z,22.20
2018-11-02T01:23:28.223Z,22.20
2018-11-02T01:25:56.392Z,22.20
2018-11-02T01:28:24.605Z,22.20
2018-11-02T01:30:52.737Z,22.20
2018-11-02T01:33:25.144Z,22.20
2018-11-02T01:35:53.375Z,22.20
2018-11-02T01:38:21.509Z,22.20
2018-11-02T01:40:49.661Z,22.20
2018-11-02T01:43:17.759Z,22.20
2018-11-02T01:45:45.877Z,22.20
2018-11-02T01:48:14.091Z,22.20
2018-11-02T01:50:42.258Z,22.20
2018-11-02T01:53:10.512Z,22.20
2018-11-02T01:55:38.839Z,22.20
2018-11-02T01:58:07.045Z,22.10
2018-11-02T02:00:35.160Z,22.10
2018-11-02T02:03:03.269Z,22.10
2018-11-02T02:05:31.505Z,22.10
2018-11-02T02:07:59.789Z,22.10
2018-11-02T02:10:27.945Z,22.10
2018-11-02T02:12:56.107Z,22.10
2018-11-02T02:15:24.290Z,22.10
2018-11-02T02:17:52.478Z,22.10
2018-11-02T02:20:20.579Z,22.10
2018-11-02T02:22:48.677Z,22.10
2018-11-02T02:25:16.785Z,22.10
2018-11-02T02:27:44.922Z,22.10
2018-11-02T02:30:14.040Z,22.10
2018-11-02T02:32:42.432Z,22.00
2018-11-02T02:35:11.103Z,22.10
2018-11-02T02:37:40.291Z,22.00
2018-11-02T02:40:09.936Z,22.00
2018-11-02T02:42:38.685Z,22.00
2018-11-02T02:45:07.191Z,22.00
2018-11-02T02:47:35.440Z,22.00
2018-11-02T02:50:03.744Z,22.00
2018-11-02T02:52:32.149Z,22.00
2018-11-02T02:55:00.368Z,22.00
2018-11-02T02:57:28.598Z,22.00
2018-11-02T02:59:56.753Z,22.00
2018-11-02T03:02:24.872Z,22.00
2018-11-02T03:04:53.022Z,22.00
2018-11-02T03:07:21.130Z,22.00
2018-11-02T03:09:49.259Z,22.00
2018-11-02T03:12:17.342Z,22.00
2018-11-02T03:14:45.506Z,22.00
2018-11-02T03:17:13.618Z,22.00
2018-11-02T03:19:41.763Z,22.00
2018-11-02T03:22:09.924Z,22.00
2018-11-02T03:24:38.048Z,22.00
2018-11-02T03:27:06.154Z,21.90
2018-11-02T03:29:34.242Z,21.90
2018-11-02T03:32:02.373Z,21.90
2018-11-02T03:34:30.501Z,21.90
2018-11-02T03:36:58.597Z,21.90
2018-11-02T03:39:26.729Z,21.90
2018-11-02T03:41:54.857Z,21.90
2018-11-02T03:44:22.981Z,21.90
2018-11-02T03:46:51.089Z,21.90
2018-11-02T03:49:19.245Z,21.90
2018-11-02T03:51:47.410Z,21.90
2018-11-02T03:54:15.677Z,21.90
2018-11-02T03:56:44.051Z,21.90
2018-11-02T03:59:12.346Z,21.90
2018-11-02T04:01:40.497Z,21.90
2018-11-02T04:04:09.061Z,21.90
2018-11-02T04:06:37.164Z,21.90
2018-11-02T04:09:06.767Z,21.90
2018-11-02T04:11:35.280Z,21.80
2018-11-02T04:14:03.406Z,21.90
2018-11-02T04:16:32.101Z,21.80
2018-11-02T04:19:00.239Z,21.80
2018-11-02T04:21:28.385Z,21.80
2018-11-02T04:23:56.493Z,21.80
2018-11-02T04:26:24.640Z,21.80
2018-11-02T04:28:52.745Z,21.80
2018-11-02T04:31:20.899Z,21.80
2018-11-02T04:33:49.105Z,21.80
2018-11-02T04:36:17.228Z,21.80
2018-11-02T04:38:45.356Z,21.80
2018-11-02T04:41:13.469Z,21.80
2018-11-02T04:43:41.617Z,21.80
2018-11-02T04:46:09.948Z,21.80
2018-11-02T04:48:38.241Z,21.80
2018-11-02T04:51:06.539Z,21.80
2018-11-02T04:53:34.826Z,21.80
2018-11-02T04:56:03.857Z,21.80
2018-11-02T04:58:32.735Z,21.80
2018-11-02T05:01:01.325Z,21.80
2018-11-02T05:03:29.626Z,21.80
2018-11-02T05:05:58.356Z,21.80
2018-11-02T05:08:27.887Z,21.80
2018-11-02T05:10:56.200Z,21.80
2018-11-02T05:13:25.145Z,21.80
2018-11-02T05:15:53.560Z,21.80
2018-11-02T05:18:21.764Z,21.80
2018-11-02T05:20:49.922Z,21.80
2018-11-02T05:23:18.081Z,21.80
2018-11-02T05:25:46.501Z,21.80
2018-11-02T05:28:14.620Z,21.80
2018-11-02T05:30:42.831Z,21.80
2018-11-02T05:33:11.067Z,21.70
2018-11-02T05:35:39.372Z,21.80
2018-11-02T05:38:07.460Z,21.70
2018-11-02T05:40:36.170Z,21.70
2018-11-02T05:43:04.464Z,21.70
2018-11-02T05:45:32.743Z,21.70
2018-11-02T05:48:01.128Z,21.70
2018-11-02T05:50:29.600Z,21.70
2018-11-02T05:52:58.099Z,21.70
2018-11-02T05:55:26.412Z,21.70
2018-11-02T05:57:54.651Z,21.70
2018-11-02T06:00:22.733Z,21.70
2018-11-02T06:02:50.941Z,21.70
2018-11-02T06:05:19.181Z,21.70
2018-11-02T06:07:47.359Z,21.70
2018-11-02T06:10:15.740Z,21.70
2018-11-02T06:12:43.982Z,21.70
2018-11-02T06:15:12.392Z,21.70
2018-11-02T06:17:40.593Z,21.70
2018-11-02T06:20:09.693Z,21.70
2018-11-02T06:22:38.067Z,21.60
2018-11-02T06:25:07.792Z,21.60
2018-11-02T06:27:36.258Z,21.60
2018-11-02T06:30:05.013Z,21.60
2018-11-02T06:32:33.425Z,21.60
2018-11-02T06:35:01.519Z,21.70
2018-11-02T06:37:29.667Z,21.60
2018-11-02T06:39:58.046Z,21.60
2018-11-02T06:42:26.445Z,21.60
2018-11-02T06:44:55.004Z,21.60
2018-11-02T06:47:23.064Z,21.60
2018-11-02T06:49:51.297Z,21.60
2018-11-02T06:52:19.504Z,21.60
2018-11-02T06:54:47.842Z,21.60
2018-11-02T06:57:16.141Z,21.60
2018-11-02T06:59:44.581Z,21.60
2018-11-02T07:02:19.379Z,21.60
2018-11-02T07:04:47.757Z,21.60
2018-11-02T07:07:15.989Z,21.60
2018-11-02T07:09:44.025Z,21.60
2018-11-02T07:12:12.163Z,21.60
2018-11-02T07:14:40.371Z,21.60
2018-11-02T07:17:08.584Z,21.60
2018-11-02T07:19:36.708Z,21.60
2018-11-02T07:22:05.193Z,21.60
2018-11-02T07:24:33.712Z,21.60
2018-11-02T07:27:01.753Z,21.60
2018-11-02T07:29:29.930Z,21.60
2018-11-02T07:31:58.197Z,21.60
2018-11-02T07:34:26.386Z,21.60
2018-11-02T07:36:54.441Z,21.60
2018-11-02T07:39:22.675Z,21.60
2018-11-02T07:41:50.789Z,21.60
2018-11-02T07:44:19.270Z,21.60
2018-11-02T07:46:47.613Z,21.60
2018-11-02T07:49:15.999Z,21.60
2018-11-02T07:51:44.135Z,21.60
2018-11-02T07:54:12.675Z,21.50
2018-11-02T07:56:42.195Z,21.50
2018-11-02T07:59:10.375Z,21.60
2018-11-02T08:01:38.533Z,21.50
2018-11-02T08:04:06.657Z,21.50
2018-11-02T08:06:34.834Z,21.50
2018-11-02T08:09:03.200Z,21.50
2018-11-02T08:11:31.528Z,21.50
2018-11-02T08:13:59.777Z,21.50
2018-11-02T08:16:27.861Z,21.50
2018-11-02T08:18:55.968Z,21.50
2018-11-02T08:21:24.261Z,21.50
2018-11-02T08:23:52.469Z,21.50
2018-11-02T08:26:20.575Z,21.50
2018-11-02T08:28:48.705Z,21.50
2018-11-02T08:31:16.895Z,21.50
2018-11-02T08:33:45.006Z,21.50
2018-11-02T08:36:13.438Z,21.50
2018-11-02T08:38:41.553Z,21.50
2018-11-02T08:41:09.723Z,21.50
2018-11-02T08:43:37.920Z,21.50
2018-11-02T08:46:06.071Z,21.50
2018-11-02T08:48:34.170Z,21.50
2018-11-02T08:51:02.425Z,21.50
2018-11-02T08:53:30.517Z,21.50
2018-11-02T08:55:58.694Z,21.50
2018-11-02T08:58:27.026Z,21.50
2018-11-02T09:00:55.026Z,21.50
2018-11-02T09:03:23.224Z,21.50
2018-11-02T09:05:51.461Z,21.50
2018-11-02T09:08:19.559Z,21.50
2018-11-02T09:10:47.834Z,21.50
2018-11-02T09:13:15.965Z,21.50
2018-11-02T09:15:45.329Z,21.50
2018-11-02T09:18:14.300Z,21.50
2018-11-02T09:20:42.487Z,21.50
2018-11-02T09:23:10.690Z,21.50
2018-11-02T09:25:38.827Z,21.50
2018-11-02T09:28:07.994Z,21.50
2018-11-02T09:30:36.160Z,21.50
2018-11-02T09:33:04.364Z,21.50
2018-11-02T09:35:32.644Z,21.50
2018-11-02T09:38:00.796Z,21.40
2018-11-02T09:40:29.338Z,21.50
2018-11-02T09:42:57.597Z,21.40
2018-11-02T09:45:25.873Z,21.50
2018-11-02T09:47:54.047Z,21.50
2018-11-02T09:50:22.449Z,21.50
2018-11-02T09:52:50.689Z,21.50
2018-11-02T09:55:18.915Z,21.50
2018-11-02T09:57:47.175Z,21.50
2018-11-02T10:00:15.832Z,21.50
2018-11-02T10:02:44.573Z,21.50
2018-11-02T10:05:13.194Z,21.50
2018-11-02T10:07:41.869Z,21.50
2018-11-02T10:10:11.037Z,21.50
2018-11-02T10:12:39.145Z,21.50
2018-11-02T10:15:10.673Z,21.50
2018-11-02T10:17:40.032Z,21.50
2018-11-02T10:20:09.445Z,21.50
2018-11-02T10:22:37.872Z,21.50
2018-11-02T10:25:06.406Z,21.50
2018-11-02T10:27:34.953Z,21.50
2018-11-02T10:30:03.472Z,21.60
2018-11-02T10:32:31.698Z,21.80
2018-11-02T10:35:00.336Z,21.90
2018-11-02T10:37:28.553Z,22.00
2018-11-02T10:39:56.652Z,22.20
2018-11-02T10:42:25.167Z,22.40
2018-11-02T10:44:53.303Z,22.60
2018-11-02T10:47:21.688Z,22.80
2018-11-02T10:49:49.856Z,22.90
2018-11-02T10:52:17.963Z,23.10
2018-11-02T10:54:46.243Z,23.20
2018-11-02T10:57:14.590Z,23.40
2018-11-02T10:59:43.049Z,23.50
2018-11-02T11:02:45.116Z,23.30
2018-11-02T11:05:13.285Z,23.30
2018-11-02T11:07:41.395Z,23.10
2018-11-02T11:10:10.428Z,23.00
2018-11-02T11:12:39.582Z,23.00
2018-11-02T11:15:07.631Z,22.90
2018-11-02T11:17:36.011Z,22.80
2018-11-02T11:20:05.309Z,22.80
2018-11-02T11:22:33.558Z,22.70
2018-11-02T11:25:01.642Z,22.70
2018-11-02T11:27:29.818Z,22.60
2018-11-02T11:29:58.157Z,22.60
2018-11-02T11:32:26.541Z,22.50
2018-11-02T11:34:54.737Z,22.50
2018-11-02T11:37:22.908Z,22.50
2018-11-02T11:39:51.263Z,22.50
2018-11-02T11:42:19.331Z,22.40
2018-11-02T11:44:48.506Z,22.40
2018-11-02T11:47:16.614Z,22.40
2018-11-02T11:49:44.734Z,22.40
2018-11-02T11:52:12.886Z,22.30
2018-11-02T11:54:41.124Z,22.30
2018-11-02T11:57:09.697Z,22.30
2018-11-02T11:59:37.924Z,22.30
2018-11-02T12:02:06.191Z,22.30
2018-11-02T12:04:34.523Z,22.30
2018-11-02T12:07:02.634Z,22.20
2018-11-02T12:09:31.063Z,22.20
2018-11-02T12:11:59.201Z,22.30
2018-11-02T12:14:27.318Z,22.30
2018-11-02T12:16:55.557Z,22.30
2018-11-02T12:19:23.894Z,22.40
2018-11-02T12:21:52.163Z,22.40
2018-11-02T12:24:20.293Z,22.40
2018-11-02T12:26:48.452Z,22.40
2018-11-02T12:29:16.814Z,22.50
2018-11-02T12:31:45.093Z,22.50
2018-11-02T12:34:13.588Z,22.50
2018-11-02T12:36:41.747Z,22.50
2018-11-02T12:39:09.948Z,22.60
2018-11-02T12:41:38.702Z,22.70
2018-11-02T12:44:07.233Z,22.90
2018-11-02T12:46:35.690Z,23.10
2018-11-02T12:49:04.054Z,23.30
2018-11-02T12:51:32.084Z,23.70
2018-11-02T12:54:00.245Z,23.80
2018-11-02T12:56:28.369Z,24.00
2018-11-02T12:58:56.856Z,24.30
2018-11-02T13:01:26.918Z,24.50
2018-11-02T13:03:55.080Z,24.70
2018-11-02T13:06:23.281Z,24.90
2018-11-02T13:08:51.580Z,25.10
2018-11-02T13:11:19.808Z,25.30
2018-11-02T13:13:48.085Z,25.50
2018-11-02T13:16:16.365Z,25.50
2018-11-02T13:18:44.640Z,25.70
2018-11-02T13:21:12.904Z,25.50
2018-11-02T13:23:41.101Z,25.40
2018-11-02T13:26:09.606Z,25.40
2018-11-02T13:28:37.637Z,25.50
2018-11-02T13:31:06.066Z,25.70
2018-11-02T13:33:34.274Z,25.60
2018-11-02T13:36:03.141Z,25.30
2018-11-02T13:38:31.315Z,25.10
2018-11-02T13:40:59.477Z,24.80
2018-11-02T13:43:27.892Z,24.70
2018-11-02T13:45:56.154Z,24.50
2018-11-02T13:48:24.365Z,24.40
2018-11-02T13:50:52.530Z,24.20
2018-11-02T13:53:20.765Z,24.30
2018-11-02T13:55:49.010Z,24.10
2018-11-02T13:58:17.165Z,24.10
2018-11-02T14:03:24.053Z,23.90
2018-11-02T14:05:52.230Z,23.90
2018-11-02T14:08:20.495Z,23.80
2018-11-02T14:10:48.745Z,23.80
2018-11-02T14:13:16.944Z,23.70
2018-11-02T14:15:45.125Z,23.70
2018-11-02T14:18:13.284Z,23.70
2018-11-02T14:20:41.529Z,23.70
2018-11-02T14:23:09.626Z,23.60
2018-11-02T14:25:37.889Z,23.60
2018-11-02T14:28:06.049Z,23.60
2018-11-02T14:30:34.375Z,23.60
2018-11-02T14:33:02.705Z,23.50
2018-11-02T14:35:31.088Z,23.60
2018-11-02T14:37:59.342Z,23.50
2018-11-02T14:40:27.516Z,23.50
2018-11-02T14:42:55.877Z,23.40
2018-11-02T14:45:24.168Z,23.40
2018-11-02T14:47:52.294Z,23.40
2018-11-02T14:50:20.456Z,23.40
2018-11-02T14:52:48.605Z,23.40
2018-11-02T14:55:16.890Z,23.30
2018-11-02T14:57:45.179Z,23.30
2018-11-02T15:00:13.437Z,23.30
2018-11-02T15:02:42.120Z,23.30
2018-11-02T15:05:11.735Z,23.30
2018-11-02T15:07:40.373Z,23.30
2018-11-02T15:10:08.516Z,23.20
2018-11-02T15:12:36.971Z,23.20
2018-11-02T15:15:05.484Z,23.20
2018-11-02T15:17:33.623Z,23.20
2018-11-02T15:20:01.781Z,23.10
2018-11-02T15:22:30.077Z,23.10
2018-11-02T15:24:58.739Z,23.10
2018-11-02T15:27:27.347Z,23.10
2018-11-02T15:29:55.499Z,23.10
2018-11-02T15:32:24.201Z,23.10
2018-11-02T15:34:52.301Z,23.10
2018-11-02T15:37:20.628Z,23.10
2018-11-02T15:39:48.859Z,23.10
2018-11-02T15:42:16.981Z,23.10
2018-11-02T15:44:45.247Z,23.00
2018-11-02T15:47:13.316Z,23.00
2018-11-02T15:49:41.449Z,23.10
2018-11-02T15:52:09.773Z,23.00
2018-11-02T15:54:38.050Z,23.00
2018-11-02T15:57:06.293Z,23.10
2018-11-02T15:59:34.516Z,23.00
2018-11-02T16:02:02.653Z,23.00
2018-11-02T16:04:30.909Z,23.00
2018-11-02T16:06:59.162Z,23.00
2018-11-02T16:09:27.256Z,23.00
2018-11-02T16:11:55.545Z,23.00
2018-11-02T16:14:23.783Z,23.00
2018-11-02T16:16:51.819Z,22.90
2018-11-02T16:19:20.030Z,23.00
2018-11-02T16:21:48.172Z,22.90
2018-11-02T16:24:16.303Z,23.00
2018-11-02T16:26:44.587Z,22.90
2018-11-02T16:29:12.837Z,23.00
2018-11-02T16:31:40.975Z,23.00
2018-11-02T16:34:09.269Z,22.90
2018-11-02T16:36:37.825Z,22.90
2018-11-02T16:39:09.423Z,22.90
2018-11-02T16:41:37.830Z,22.90
2018-11-02T16:44:06.149Z,23.00
2018-11-02T16:46:34.248Z,23.00
2018-11-02T16:49:02.649Z,23.00
2018-11-02T16:51:31.084Z,23.00
2018-11-02T16:53:59.493Z,23.00
2018-11-02T16:56:27.877Z,23.00
2018-11-02T16:58:55.959Z,23.00
2018-11-02T17:01:24.113Z,23.00
2018-11-02T17:03:52.381Z,22.90
2018-11-02T17:06:20.485Z,22.90
2018-11-02T17:08:48.749Z,22.90
2018-11-02T17:11:17.101Z,22.90
2018-11-02T17:13:45.315Z,22.90
2018-11-02T17:16:13.971Z,22.90
2018-11-02T17:18:42.244Z,22.90
2018-11-02T17:21:10.431Z,22.90
2018-11-02T17:23:38.792Z,22.90
2018-11-02T17:26:07.013Z,22.90
2018-11-02T17:28:35.362Z,22.90
2018-11-02T17:31:03.558Z,22.90
2018-11-02T17:33:31.720Z,22.90
2018-11-02T17:35:59.934Z,22.90
2018-11-02T17:38:28.442Z,22.80
2018-11-02T17:40:56.613Z,22.80
2018-11-02T17:43:24.977Z,22.80
2018-11-02T17:45:53.096Z,22.80
2018-11-02T17:48:21.573Z,22.80
2018-11-02T17:50:49.729Z,22.80
2018-11-02T17:53:17.987Z,22.80
2018-11-02T17:55:46.142Z,22.80
2018-11-02T17:58:14.285Z,23.10
2018-11-02T18:00:42.453Z,23.00
2018-11-02T18:03:10.650Z,22.90
2018-11-02T18:05:38.934Z,22.90
2018-11-02T18:08:07.153Z,22.80
2018-11-02T18:10:35.342Z,22.80
2018-11-02T18:13:03.477Z,22.80
2018-11-02T18:15:31.767Z,22.80
2018-11-02T18:17:59.930Z,22.80
2018-11-02T18:20:28.117Z,22.70
2018-11-02T18:22:57.033Z,22.70
2018-11-02T18:25:25.732Z,22.70
2018-11-02T18:27:53.910Z,22.70
2018-11-02T18:30:22.068Z,22.70
2018-11-02T18:32:50.270Z,22.70
2018-11-02T18:35:18.572Z,22.70
2018-11-02T18:37:46.726Z,22.70
2018-11-02T18:40:14.878Z,22.70
2018-11-02T18:42:44.526Z,22.60
2018-11-02T18:45:13.854Z,22.60
2018-11-02T18:47:45.334Z,22.60
2018-11-02T18:50:15.088Z,22.60
2018-11-02T18:52:43.264Z,22.50
2018-11-02T18:55:11.443Z,22.60
2018-11-02T18:57:40.862Z,22.80
2018-11-02T19:00:10.206Z,22.60
2018-11-02T19:02:38.522Z,22.60
2018-11-02T19:05:10.515Z,22.60
2018-11-02T19:07:38.963Z,22.50
2018-11-02T19:10:08.161Z,22.50
2018-11-02T19:12:36.550Z,22.50
2018-11-02T19:15:06.226Z,22.50
2018-11-02T19:17:34.334Z,22.50
2018-11-02T19:20:02.706Z,22.50
2018-11-02T19:22:30.675Z,22.40
2018-11-02T19:24:59.725Z,22.40
2018-11-02T19:27:27.984Z,22.40
2018-11-02T19:29:56.235Z,22.40
2018-11-02T19:32:24.406Z,22.30
2018-11-02T19:34:52.898Z,22.30
2018-11-02T19:37:21.318Z,22.30
2018-11-02T19:39:49.425Z,22.30
2018-11-02T19:42:17.653Z,22.20
2018-11-02T19:44:45.797Z,22.20
2018-11-02T19:47:13.952Z,22.20
2018-11-02T19:49:42.069Z,22.20
2018-11-02T19:52:10.215Z,22.20
2018-11-02T19:54:38.348Z,22.10
2018-11-02T19:57:06.959Z,22.10
2018-11-02T19:59:35.180Z,22.10
2018-11-02T20:02:03.618Z,22.00
2018-11-02T20:04:31.901Z,22.00
2018-11-02T20:07:00.332Z,22.00
2018-11-02T20:09:28.598Z,22.00
2018-11-02T20:11:56.678Z,22.00
2018-11-02T20:14:25.001Z,22.00
2018-11-02T20:16:53.145Z,21.90
2018-11-02T20:19:21.401Z,21.90
2018-11-02T20:21:49.537Z,21.90
2018-11-02T20:24:18.176Z,21.90
2018-11-02T20:26:46.713Z,21.90
2018-11-02T20:29:14.969Z,21.90
2018-11-02T20:31:45.990Z,21.90
2018-11-02T20:34:14.205Z,21.80
2018-11-02T20:36:42.353Z,21.80
2018-11-02T20:39:11.352Z,21.80
2018-11-02T20:41:39.523Z,21.80
2018-11-02T20:44:07.981Z,21.80
2018-11-02T20:46:36.847Z,21.80
2018-11-02T20:49:05.272Z,21.80
2018-11-02T20:51:33.445Z,21.70
2018-11-02T20:54:01.628Z,21.70
2018-11-02T20:56:29.919Z,21.70
2018-11-02T20:58:58.172Z,21.70
2018-11-02T21:01:26.353Z,21.70
2018-11-02T21:03:54.567Z,21.70
2018-11-02T21:06:22.707Z,21.70
2018-11-02T21:08:50.892Z,21.70
2018-11-02T21:11:18.981Z,21.70
2018-11-02T21:13:47.173Z,21.60
2018-11-02T21:16:15.376Z,21.70
2018-11-02T21:18:43.894Z,21.60
2018-11-02T21:21:12.050Z,21.60
2018-11-02T21:23:40.221Z,21.60
2018-11-02T21:26:08.613Z,21.60
2018-11-02T21:28:36.964Z,21.60
2018-11-02T21:31:05.568Z,21.60
2018-11-02T21:33:33.753Z,21.60
2018-11-02T21:36:01.964Z,21.60
2018-11-02T21:38:30.132Z,21.60
2018-11-02T21:40:58.261Z,21.60
2018-11-02T21:43:26.411Z,21.60
2018-11-02T21:45:54.519Z,21.60
2018-11-02T21:48:22.780Z,21.60
2018-11-02T21:50:51.000Z,21.60
2018-11-02T21:53:19.173Z,21.60
2018-11-02T21:55:47.306Z,21.60
2018-11-02T21:58:15.423Z,21.60
2018-11-02T22:00:43.542Z,21.60
2018-11-02T22:03:11.857Z,21.60
2018-11-02T22:05:40.292Z,21.60
2018-11-02T22:08:08.366Z,21.60
2018-11-02T22:10:36.491Z,21.60
2018-11-02T22:13:04.853Z,21.60
2018-11-02T22:15:32.881Z,21.60
2018-11-02T22:18:01.053Z,21.60
2018-11-02T22:20:29.669Z,21.60
2018-11-02T22:22:57.829Z,21.60
2018-11-02T22:25:25.950Z,21.50
2018-11-02T22:27:54.312Z,21.50
2018-11-02T22:30:22.468Z,21.50
2018-11-02T22:32:50.606Z,21.50
2018-11-02T22:35:18.753Z,21.50
2018-11-02T22:37:47.111Z,21.50
2018-11-02T22:40:15.443Z,21.50
2018-11-02T22:42:44.032Z,21.50
2018-11-02T22:45:13.461Z,21.50
2018-11-02T22:47:42.558Z,21.50
2018-11-02T22:50:10.865Z,21.50
2018-11-02T22:52:38.980Z,21.50
2018-11-02T22:55:07.829Z,21.50
2018-11-02T22:57:35.955Z,21.50
2018-11-02T23:00:07.305Z,21.50
2018-11-02T23:02:35.574Z,21.50
2018-11-02T23:05:03.733Z,21.50
2018-11-02T23:07:31.825Z,21.50
2018-11-02T23:09:59.977Z,21.50
2018-11-02T23:12:28.098Z,21.50
2018-11-02T23:14:56.368Z,21.50
2018-11-02T23:17:24.496Z,21.50
2018-11-02T23:19:52.764Z,21.50
2018-11-02T23:22:21.299Z,21.50
2018-11-02T23:24:49.428Z,21.50
2018-11-02T23:27:17.583Z,21.50
2018-11-02T23:29:46.061Z,21.50
2018-11-02T23:32:14.277Z,21.50
2018-11-02T23:34:42.387Z,21.50
2018-11-02T23:37:10.677Z,21.50
2018-11-02T23:39:39.008Z,21.50
2018-11-02T23:42:07.312Z,21.50
2018-11-02T23:44:35.495Z,21.50
2018-11-02T23:47:03.682Z,21.50
2018-11-02T23:49:32.110Z,21.50
2018-11-02T23:52:00.307Z,21.40
2018-11-02T23:54:28.510Z,21.50
2018-11-02T23:56:56.625Z,21.50
2018-11-02T23:59:24.760Z,21.50
